Time;durP1;ratioP1;P1;durP2;ratioP2;P2;SDS_P1;SDS_P2;PMS_P1;PMS_P2;Temp;Humidity;BMP_temperature;BMP_pressure;BME280_temperature;BME280_humidity;BME280_pressure;Samples;Min_cycle;Max_cycle;Signal;HPM_P1;HPM_P2
2023/01/06 00:01:21;;;;;;;6.53;4.97;;;11.60;99.90;;;;;;5058692;28;20821;-72
2023/01/06 00:04:07;;;;;;;6.93;4.80;;;11.60;99.90;;;;;;5053685;28;20454;-72
2023/01/06 00:06:54;;;;;;;8.40;4.13;;;11.60;99.90;;;;;;5050912;28;20459;-73
2023/01/06 00:09:39;;;;;;;5.30;3.93;;;11.60;99.90;;;;;;5066298;28;20447;-73
2023/01/06 00:12:26;;;;;;;5.07;3.67;;;11.60;99.90;;;;;;5045936;28;20804;-72
2023/01/06 00:15:12;;;;;;;6.70;4.20;;;11.50;99.90;;;;;;5047984;28;20415;-72
2023/01/06 00:17:57;;;;;;;6.07;3.93;;;11.60;99.90;;;;;;5058182;28;20482;-72
2023/01/06 00:20:43;;;;;;;5.90;4.23;;;11.60;99.90;;;;;;5056683;28;20838;-72
2023/01/06 00:23:30;;;;;;;6.37;4.10;;;11.50;99.90;;;;;;5047258;28;20490;-72
2023/01/06 00:26:16;;;;;;;7.43;4.13;;;11.50;99.90;;;;;;5058060;28;20401;-73
2023/01/06 00:29:01;;;;;;;6.63;4.13;;;11.60;99.90;;;;;;5052424;28;20427;-72
2023/01/06 00:31:47;;;;;;;8.03;4.10;;;11.60;99.90;;;;;;5059503;28;20801;-72
2023/01/06 00:34:33;;;;;;;9.50;5.43;;;11.60;99.90;;;;;;5046650;28;20493;-72
2023/01/06 00:37:19;;;;;;;12.80;5.20;;;11.60;99.90;;;;;;5057882;28;20786;-72
2023/01/06 00:40:07;;;;;;;5.80;4.87;;;11.50;99.90;;;;;;5059974;28;20449;-72
2023/01/06 00:42:52;;;;;;;10.40;5.40;;;11.50;99.90;;;;;;5063522;28;20419;-72
2023/01/06 00:45:38;;;;;;;8.40;5.63;;;11.50;99.90;;;;;;5044512;28;20436;-72
2023/01/06 00:48:24;;;;;;;7.13;5.60;;;11.40;99.90;;;;;;5057545;28;20571;-73
2023/01/06 00:51:10;;;;;;;13.23;5.40;;;11.40;99.90;;;;;;5055799;28;20414;-73
2023/01/06 00:53:55;;;;;;;10.67;5.27;;;11.40;99.90;;;;;;5051882;28;20809;-72
2023/01/06 00:59:17;;;;;;;6.07;4.13;;;11.60;99.90;;;;;;4969510;28;20474;-75
2023/01/06 01:02:03;;;;;;;5.97;4.87;;;11.60;99.90;;;;;;4977573;28;20775;-74
2023/01/06 01:04:49;;;;;;;6.37;4.53;;;11.60;99.90;;;;;;4958749;28;20486;-75
2023/01/06 01:07:34;;;;;;;9.63;6.00;;;11.50;99.90;;;;;;4976853;28;20443;-75
2023/01/06 01:10:20;;;;;;;6.43;5.83;;;11.50;99.90;;;;;;4975283;28;20413;-75
2023/01/06 01:13:05;;;;;;;7.77;5.40;;;11.50;99.90;;;;;;4971200;28;20435;-75
2023/01/06 01:15:52;;;;;;;11.17;6.17;;;11.50;99.90;;;;;;4969774;28;20798;-75
2023/01/06 01:18:38;;;;;;;8.60;6.33;;;11.50;99.90;;;;;;4978368;28;20524;-75
2023/01/06 01:21:24;;;;;;;7.53;5.83;;;11.50;99.90;;;;;;4976447;28;20401;-75
2023/01/06 01:24:10;;;;;;;7.70;6.53;;;11.50;99.90;;;;;;4971352;28;20528;-75
2023/01/06 01:26:55;;;;;;;8.93;6.23;;;11.40;99.90;;;;;;4973935;28;20427;-75
2023/01/06 01:29:41;;;;;;;9.17;6.30;;;11.40;99.90;;;;;;4975940;28;20430;-75
2023/01/06 01:32:28;;;;;;;7.20;6.30;;;11.40;99.90;;;;;;4969965;28;20444;-75
2023/01/06 01:35:14;;;;;;;8.03;6.60;;;11.50;99.90;;;;;;4964260;28;20921;-74
2023/01/06 01:38:00;;;;;;;8.97;7.10;;;11.60;99.90;;;;;;4977919;28;20454;-75
2023/01/06 01:40:47;;;;;;;7.13;6.33;;;11.60;99.90;;;;;;4974115;28;20402;-75
2023/01/06 01:43:44;;;;;;;8.00;5.97;;;11.60;99.90;;;;;;4956216;28;20444;-75
2023/01/06 01:46:33;;;;;;;6.27;5.47;;;11.60;99.90;;;;;;4965043;28;20402;-75
2023/01/06 01:49:24;;;;;;;12.27;9.10;;;11.70;99.90;;;;;;4975838;28;20405;-75
2023/01/06 01:52:11;;;;;;;11.20;6.10;;;11.60;99.90;;;;;;4968819;28;20431;-74
2023/01/06 01:54:57;;;;;;;9.17;5.20;;;11.50;99.90;;;;;;4970122;28;20785;-74
2023/01/06 01:57:47;;;;;;;10.30;5.50;;;11.50;99.90;;;;;;4970477;28;21025;-75
2023/01/06 02:00:33;;;;;;;7.33;5.47;;;11.50;99.90;;;;;;4970737;28;20455;-75
2023/01/06 02:03:21;;;;;;;6.80;4.73;;;11.50;99.90;;;;;;4969710;28;20962;-74
2023/01/06 02:06:16;;;;;;;6.00;5.30;;;11.50;99.90;;;;;;4975297;28;20475;-75
2023/01/06 02:09:06;;;;;;;7.20;5.37;;;11.50;99.90;;;;;;4979898;28;20787;-75
2023/01/06 02:11:55;;;;;;;7.87;5.23;;;11.50;99.90;;;;;;4971984;28;20504;-76
2023/01/06 02:14:40;;;;;;;6.17;5.40;;;11.50;99.90;;;;;;4966952;28;20427;-75
2023/01/06 02:17:45;;;;;;;6.07;4.77;;;11.60;99.90;;;;;;4977259;28;20425;-75
2023/01/06 02:20:47;;;;;;;7.87;4.93;;;11.70;99.90;;;;;;4975638;28;20941;-74
2023/01/06 02:24:05;;;;;;;5.40;4.90;;;11.70;99.90;;;;;;4961873;28;20417;-74
2023/01/06 02:27:22;;;;;;;8.80;5.10;;;11.70;99.90;;;;;;4973314;28;20481;-75
2023/01/06 02:30:40;;;;;;;10.83;5.00;;;11.70;99.90;;;;;;4979954;28;20802;-75
2023/01/06 02:33:31;;;;;;;6.77;5.27;;;11.70;99.90;;;;;;4971024;28;20422;-75
2023/01/06 02:36:27;;;;;;;8.77;5.10;;;11.60;99.90;;;;;;4979830;28;20419;-75
2023/01/06 02:39:22;;;;;;;5.57;4.83;;;11.70;99.90;;;;;;4972424;28;20788;-75
2023/01/06 02:42:20;;;;;;;7.53;5.30;;;11.60;99.90;;;;;;4973087;28;20508;-73
2023/01/06 02:45:12;;;;;;;10.10;6.20;;;11.70;99.90;;;;;;4973416;28;20478;-75
2023/01/06 02:48:01;;;;;;;9.90;5.97;;;11.60;99.90;;;;;;4973723;28;20455;-75
2023/01/06 02:50:54;;;;;;;8.00;6.07;;;11.70;99.90;;;;;;4976574;28;20789;-75
2023/01/06 02:53:48;;;;;;;9.67;6.10;;;11.60;99.90;;;;;;4966112;28;20975;-75
2023/01/06 02:56:39;;;;;;;12.40;7.00;;;11.50;99.90;;;;;;4975599;28;20426;-75
2023/01/06 02:59:32;;;;;;;6.73;5.60;;;11.50;99.90;;;;;;4970469;28;20427;-75
2023/01/06 03:02:19;;;;;;;5.90;4.97;;;11.50;99.90;;;;;;4968981;28;20505;-75
2023/01/06 03:05:08;;;;;;;6.50;5.80;;;11.40;99.90;;;;;;4977144;28;20527;-74
2023/01/06 03:07:57;;;;;;;6.83;6.10;;;11.40;99.90;;;;;;4973359;28;20545;-75
2023/01/06 03:10:45;;;;;;;8.03;6.17;;;11.40;99.90;;;;;;4970894;28;20416;-75
2023/01/06 03:13:38;;;;;;;8.77;6.07;;;11.40;99.90;;;;;;4973838;28;20437;-75
2023/01/06 03:16:24;;;;;;;7.73;6.67;;;11.40;99.90;;;;;;4974634;28;20906;-75
2023/01/06 03:19:11;;;;;;;8.50;7.40;;;11.50;99.90;;;;;;4971306;28;20435;-75
2023/01/06 03:21:57;;;;;;;8.97;6.80;;;11.50;99.90;;;;;;4964996;28;20936;-75
2023/01/06 03:24:46;;;;;;;11.13;7.97;;;11.50;99.90;;;;;;4975457;28;20898;-75
2023/01/06 03:27:32;;;;;;;11.67;7.40;;;11.50;99.90;;;;;;4968724;28;20426;-75
2023/01/06 03:30:18;;;;;;;8.07;7.27;;;11.50;99.90;;;;;;4980391;28;20495;-74
2023/01/06 03:33:08;;;;;;;9.10;8.20;;;11.50;99.90;;;;;;4963653;28;20470;-76
2023/01/06 03:36:07;;;;;;;11.43;8.60;;;11.50;99.90;;;;;;4976262;28;20409;-75
2023/01/06 03:39:00;;;;;;;10.10;7.87;;;11.50;99.90;;;;;;4966855;28;20429;-75
2023/01/06 03:45:05;;;;;;;10.57;9.47;;;11.50;99.90;;;;;;4976768;28;20495;-75
2023/01/06 03:47:57;;;;;;;11.23;9.90;;;11.50;99.90;;;;;;4980918;28;20429;-75
2023/01/06 03:50:48;;;;;;;14.13;11.17;;;11.50;99.90;;;;;;4971703;28;20484;-75
2023/01/06 03:53:38;;;;;;;13.33;9.87;;;11.50;99.90;;;;;;4967810;28;20402;-75
2023/01/06 03:56:28;;;;;;;13.13;11.40;;;11.50;99.90;;;;;;4976433;28;20984;-75
2023/01/06 03:59:21;;;;;;;13.80;12.00;;;11.60;99.90;;;;;;4974318;28;20468;-75
2023/01/06 04:02:07;;;;;;;16.20;14.23;;;11.60;99.90;;;;;;4966021;28;20496;-75
2023/01/06 04:05:06;;;;;;;16.63;12.00;;;11.70;99.90;;;;;;4975630;28;20851;-75
2023/01/06 04:07:52;;;;;;;20.17;11.73;;;11.70;99.90;;;;;;4969233;28;20451;-75
2023/01/06 04:10:38;;;;;;;13.87;11.70;;;11.80;99.90;;;;;;4973436;28;20417;-73
2023/01/06 04:13:23;;;;;;;16.30;12.23;;;11.80;99.90;;;;;;4974158;28;20633;-75
2023/01/06 04:16:09;;;;;;;13.77;11.47;;;11.70;99.90;;;;;;4974590;28;20536;-75
2023/01/06 04:18:55;;;;;;;13.40;11.73;;;11.70;99.90;;;;;;4980205;28;20436;-74
2023/01/06 04:21:41;;;;;;;14.07;10.43;;;11.70;99.90;;;;;;4960200;28;20425;-75
2023/01/06 04:24:27;;;;;;;14.60;10.87;;;11.70;99.90;;;;;;4969681;28;20796;-74
2023/01/06 04:27:12;;;;;;;11.27;10.10;;;11.60;99.90;;;;;;4971130;28;21007;-76
2023/01/06 04:29:58;;;;;;;19.50;10.50;;;11.60;99.90;;;;;;4975786;28;20950;-75
2023/01/06 04:32:45;;;;;;;12.87;8.90;;;11.60;99.90;;;;;;4967509;28;20546;-75
2023/01/06 04:35:31;;;;;;;11.47;10.30;;;11.50;99.90;;;;;;4976980;28;20530;-76
2023/01/06 04:38:16;;;;;;;13.97;10.60;;;11.50;99.90;;;;;;4974623;28;20425;-75
2023/01/06 04:41:02;;;;;;;12.57;7.27;;;11.50;99.90;;;;;;4962225;28;20782;-75
2023/01/06 04:43:48;;;;;;;9.13;7.23;;;11.50;99.90;;;;;;4980249;28;20417;-74
2023/01/06 04:46:34;;;;;;;9.07;8.17;;;11.40;99.90;;;;;;4968873;28;20405;-76
2023/01/06 04:49:21;;;;;;;8.03;7.23;;;11.50;99.90;;;;;;4971771;28;20398;-75
2023/01/06 04:52:07;;;;;;;7.60;6.80;;;11.50;99.90;;;;;;4961879;28;20402;-75
2023/01/06 04:54:53;;;;;;;7.83;7.03;;;11.50;99.90;;;;;;4978739;28;20532;-75
2023/01/06 04:57:39;;;;;;;8.73;7.03;;;11.50;99.90;;;;;;4966700;28;20467;-75
2023/01/06 05:00:25;;;;;;;7.77;6.37;;;11.50;99.90;;;;;;4969852;28;20443;-74
2023/01/06 05:03:10;;;;;;;7.90;7.10;;;11.50;99.90;;;;;;4977975;28;20430;-74
2023/01/06 05:06:01;;;;;;;8.67;7.57;;;11.50;99.90;;;;;;4979322;28;21043;-75
2023/01/06 05:08:47;;;;;;;8.63;6.60;;;11.50;99.90;;;;;;4985101;28;20421;-74
2023/01/06 05:11:33;;;;;;;7.20;6.50;;;11.50;99.90;;;;;;4966852;28;20450;-75
2023/01/06 05:14:19;;;;;;;8.30;7.50;;;11.50;99.90;;;;;;4976589;28;20540;-74
2023/01/06 05:17:04;;;;;;;8.90;6.77;;;11.50;99.90;;;;;;4970192;28;20434;-75
2023/01/06 05:19:50;;;;;;;7.77;6.67;;;11.50;99.90;;;;;;4959635;28;20418;-76
2023/01/06 05:22:37;;;;;;;7.40;6.60;;;11.50;99.90;;;;;;4972409;28;20430;-75
2023/01/06 05:25:23;;;;;;;6.60;5.90;;;11.50;99.90;;;;;;4972868;28;20461;-74
2023/01/06 05:28:08;;;;;;;8.47;5.33;;;11.40;99.90;;;;;;4972399;28;20425;-75
2023/01/06 05:30:59;;;;;;;6.43;4.37;;;11.50;99.90;;;;;;4963722;28;20783;-75
2023/01/06 05:33:45;;;;;;;4.67;4.27;;;11.40;99.90;;;;;;4978430;28;20497;-75
2023/01/06 05:36:31;;;;;;;4.60;4.17;;;11.30;99.90;;;;;;4975094;28;20410;-75
2023/01/06 05:39:18;;;;;;;4.37;3.93;;;11.40;99.90;;;;;;4965926;28;20409;-75
2023/01/06 05:42:04;;;;;;;5.37;4.30;;;11.30;99.90;;;;;;4967139;28;20797;-75
2023/01/06 05:44:49;;;;;;;6.03;4.70;;;11.20;99.90;;;;;;4974570;28;20525;-74
2023/01/06 05:47:35;;;;;;;5.23;4.60;;;11.20;99.90;;;;;;4974213;28;20848;-75
2023/01/06 05:50:21;;;;;;;4.93;4.17;;;11.20;99.90;;;;;;4966580;28;20454;-75
2023/01/06 05:53:06;;;;;;;5.20;4.70;;;11.10;99.90;;;;;;4972920;28;20410;-75
2023/01/06 05:55:58;;;;;;;7.43;4.23;;;11.20;99.90;;;;;;4974670;28;20441;-74
2023/01/06 05:58:46;;;;;;;7.10;4.80;;;11.20;99.90;;;;;;4970241;28;20475;-74
2023/01/06 06:01:32;;;;;;;5.30;4.10;;;11.20;99.90;;;;;;4971578;28;20800;-77
2023/01/06 06:04:18;;;;;;;5.40;4.40;;;11.00;99.90;;;;;;4977508;28;20413;-73
2023/01/06 06:07:03;;;;;;;6.90;4.73;;;11.10;99.90;;;;;;4976255;28;21024;-75
2023/01/06 06:09:49;;;;;;;6.40;4.30;;;11.10;99.90;;;;;;4964603;28;20951;-75
2023/01/06 06:12:36;;;;;;;5.80;4.87;;;11.20;99.90;;;;;;4972466;28;20422;-75
2023/01/06 06:15:22;;;;;;;5.70;5.17;;;11.10;99.90;;;;;;4979091;28;20401;-75
2023/01/06 06:18:08;;;;;;;5.30;4.80;;;10.90;99.90;;;;;;4975356;28;20787;-75
2023/01/06 06:20:59;;;;;;;6.00;4.97;;;11.00;99.90;;;;;;4975989;28;20450;-75
2023/01/06 06:23:45;;;;;;;8.50;5.10;;;11.00;99.90;;;;;;4976638;28;20818;-75
2023/01/06 06:26:30;;;;;;;6.37;5.03;;;11.10;99.90;;;;;;4973894;28;20446;-75
2023/01/06 06:29:17;;;;;;;6.73;5.73;;;11.10;99.90;;;;;;4973882;28;20429;-73
2023/01/06 06:32:03;;;;;;;6.43;5.63;;;11.10;99.90;;;;;;4975990;28;20401;-74
2023/01/06 06:34:48;;;;;;;6.97;6.27;;;11.10;99.90;;;;;;4971690;28;20562;-75
2023/01/06 06:37:34;;;;;;;7.70;6.90;;;11.10;99.90;;;;;;4984502;28;20475;-75
2023/01/06 06:40:19;;;;;;;8.43;7.63;;;11.00;99.90;;;;;;4962996;28;20418;-74
2023/01/06 06:43:05;;;;;;;7.73;6.93;;;11.00;99.90;;;;;;4973266;28;20982;-75
2023/01/06 06:45:52;;;;;;;7.47;6.77;;;11.00;99.90;;;;;;4980252;28;20474;-75
2023/01/06 06:48:38;;;;;;;8.73;7.80;;;11.10;99.90;;;;;;4965969;28;20488;-75
2023/01/06 06:51:24;;;;;;;9.60;8.23;;;11.00;99.90;;;;;;4972352;28;20435;-73
2023/01/06 06:54:09;;;;;;;8.63;7.73;;;11.00;99.90;;;;;;4976722;28;20509;-75
2023/01/06 06:56:55;;;;;;;9.87;8.87;;;10.90;99.90;;;;;;4972248;28;20428;-75
2023/01/06 06:59:41;;;;;;;9.57;8.57;;;11.00;99.90;;;;;;5104911;22;20458;-72
2023/01/06 07:02:28;;;;;;;9.50;8.43;;;11.00;99.90;;;;;;5119716;27;20425;-73
2023/01/06 07:05:13;;;;;;;8.67;7.80;;;10.90;99.90;;;;;;5125033;27;20463;-72
2023/01/06 07:07:59;;;;;;;10.80;9.70;;;10.90;99.90;;;;;;5116206;27;20432;-73
2023/01/06 07:10:44;;;;;;;10.23;9.33;;;10.90;99.90;;;;;;5089422;28;20441;-72
2023/01/06 07:13:30;;;;;;;14.33;9.23;;;10.90;99.90;;;;;;5099417;28;20472;-72
2023/01/06 07:16:16;;;;;;;10.60;9.60;;;11.00;99.90;;;;;;5095160;28;20407;-73
2023/01/06 07:19:03;;;;;;;10.87;9.77;;;10.90;99.90;;;;;;5083635;28;20560;-72
2023/01/06 07:21:49;;;;;;;15.77;10.57;;;10.90;99.90;;;;;;5101094;28;20477;-72
2023/01/06 07:24:34;;;;;;;9.30;8.37;;;10.90;99.90;;;;;;5094758;28;20481;-72
2023/01/06 07:27:20;;;;;;;9.43;6.23;;;11.00;99.90;;;;;;5102815;28;20779;-72
2023/01/06 07:30:07;;;;;;;5.40;4.90;;;11.00;99.90;;;;;;5086207;28;20449;-72
2023/01/06 07:32:54;;;;;;;5.40;4.90;;;11.00;99.90;;;;;;5097341;28;20776;-73
2023/01/06 07:35:41;;;;;;;9.33;7.57;;;11.00;99.90;;;;;;5102299;28;20741;-73
2023/01/06 07:38:27;;;;;;;6.83;6.23;;;10.90;99.90;;;;;;5095784;28;20574;-72
2023/01/06 07:41:12;;;;;;;7.87;7.07;;;10.80;99.90;;;;;;5096829;28;20425;-72
2023/01/06 07:43:58;;;;;;;10.60;7.47;;;10.80;99.90;;;;;;5098023;28;20387;-72
2023/01/06 07:46:44;;;;;;;12.17;8.90;;;10.80;99.90;;;;;;5099989;28;20554;-72
2023/01/06 07:49:29;;;;;;;12.80;11.50;;;10.80;99.90;;;;;;5090501;28;20566;-72
2023/01/06 07:52:16;;;;;;;7.60;6.80;;;10.80;99.90;;;;;;5096675;28;20430;-72
2023/01/06 07:55:02;;;;;;;6.77;5.83;;;10.70;99.90;;;;;;5097039;28;20417;-72
2023/01/06 07:57:47;;;;;;;5.67;4.63;;;10.70;99.90;;;;;;5093740;28;20551;-72
2023/01/06 08:00:33;;;;;;;5.50;4.60;;;10.70;99.90;;;;;;5087290;28;20418;-73
2023/01/06 08:03:19;;;;;;;5.90;4.33;;;10.70;99.90;;;;;;5098070;28;20431;-73
2023/01/06 08:06:09;;;;;;;4.40;3.57;;;10.70;99.90;;;;;;5096553;28;20569;-73
2023/01/06 08:08:56;;;;;;;6.67;3.20;;;10.80;99.90;;;;;;5087756;28;20470;-73
2023/01/06 08:11:42;;;;;;;3.90;2.70;;;10.70;99.90;;;;;;5090354;28;20478;-73
2023/01/06 08:14:28;;;;;;;6.23;3.33;;;10.70;99.90;;;;;;5092079;28;20426;-73
2023/01/06 08:17:13;;;;;;;3.10;1.67;;;10.80;99.90;;;;;;5097671;28;20420;-73
2023/01/06 08:19:59;;;;;;;7.33;1.70;;;10.80;99.90;;;;;;5100175;28;20425;-72
2023/01/06 08:22:44;;;;;;;3.70;1.93;;;10.80;99.90;;;;;;5097502;28;20483;-73
2023/01/06 08:25:32;;;;;;;3.20;1.37;;;10.90;99.90;;;;;;5085253;28;20758;-72
2023/01/06 08:28:17;;;;;;;2.30;0.93;;;10.90;99.90;;;;;;5086337;28;20593;-72
2023/01/06 08:31:03;;;;;;;1.60;0.80;;;10.80;99.90;;;;;;5099301;28;20400;-72
2023/01/06 08:33:50;;;;;;;5.40;2.60;;;10.80;99.90;;;;;;5097768;28;20436;-73
2023/01/06 08:36:35;;;;;;;11.30;5.70;;;10.80;99.90;;;;;;5093158;28;20531;-72
2023/01/06 08:39:21;;;;;;;5.03;2.57;;;10.70;99.90;;;;;;5088352;28;20562;-73
2023/01/06 08:42:08;;;;;;;2.30;1.17;;;10.60;99.90;;;;;;5097486;28;20795;-73
2023/01/06 08:44:54;;;;;;;2.37;1.20;;;10.60;99.90;;;;;;5096383;28;20408;-72
2023/01/06 08:47:39;;;;;;;1.90;0.80;;;10.60;99.90;;;;;;5097566;28;20448;-73
2023/01/06 08:50:25;;;;;;;1.83;1.10;;;10.70;99.90;;;;;;5100547;28;20476;-72
2023/01/06 08:53:12;;;;;;;1.20;0.60;;;10.70;99.90;;;;;;5097164;28;20984;-72
2023/01/06 08:55:58;;;;;;;2.23;0.70;;;10.70;99.90;;;;;;5098086;28;20788;-72
2023/01/06 08:58:45;;;;;;;1.30;0.70;;;10.70;99.90;;;;;;5088921;28;20451;-72
2023/01/06 09:01:33;;;;;;;3.60;0.80;;;10.70;99.90;;;;;;5090519;28;20434;-72
2023/01/06 09:04:19;;;;;;;3.63;0.90;;;10.80;99.90;;;;;;5101332;28;20515;-72
2023/01/06 09:07:05;;;;;;;1.40;0.77;;;10.90;99.90;;;;;;5090090;28;20477;-72
2023/01/06 09:09:50;;;;;;;1.97;0.73;;;10.80;99.90;;;;;;5098782;28;20432;-72
2023/01/06 09:12:36;;;;;;;2.23;0.77;;;10.80;99.90;;;;;;5096635;28;20400;-73
2023/01/06 09:15:23;;;;;;;1.40;0.80;;;10.80;99.90;;;;;;5099906;28;20504;-73
2023/01/06 09:18:09;;;;;;;2.13;0.70;;;10.90;99.90;;;;;;5086779;28;20835;-72
2023/01/06 09:20:55;;;;;;;2.33;1.10;;;10.90;99.90;;;;;;5097711;28;21004;-73
2023/01/06 09:23:41;;;;;;;4.70;1.10;;;10.90;99.90;;;;;;5093808;28;20893;-73
2023/01/06 09:26:27;;;;;;;1.50;0.80;;;11.10;99.90;;;;;;5095721;28;20456;-73
2023/01/06 09:29:12;;;;;;;3.77;1.00;;;11.10;99.90;;;;;;5094875;28;21237;-73
2023/01/06 09:31:59;;;;;;;1.90;0.97;;;11.10;99.90;;;;;;5089237;28;20421;-73
2023/01/06 09:34:45;;;;;;;2.60;1.00;;;11.20;99.90;;;;;;5097567;28;20555;-72
2023/01/06 09:37:30;;;;;;;3.50;1.20;;;11.10;99.90;;;;;;5077418;28;20445;-73
2023/01/06 09:40:19;;;;;;;4.60;1.13;;;11.10;99.90;;;;;;5102273;28;20941;-72
2023/01/06 09:43:14;;;;;;;1.57;0.90;;;11.10;99.90;;;;;;5102665;28;20404;-72
2023/01/06 09:46:03;;;;;;;3.30;1.00;;;11.10;99.90;;;;;;5092247;28;21104;-72
2023/01/06 09:48:58;;;;;;;4.37;1.10;;;11.00;99.90;;;;;;5099074;28;20835;-72
2023/01/06 09:51:44;;;;;;;2.00;1.00;;;11.00;99.90;;;;;;5089721;28;20441;-72
2023/01/06 09:54:34;;;;;;;3.20;1.00;;;10.90;99.90;;;;;;5100265;28;20421;-72
2023/01/06 09:57:26;;;;;;;5.20;2.13;;;10.90;99.90;;;;;;5091785;28;20424;-72
2023/01/06 10:00:27;;;;;;;6.77;4.10;;;10.80;99.90;;;;;;5101746;28;20441;-72
2023/01/06 10:03:15;;;;;;;3.97;1.93;;;10.90;99.90;;;;;;5093543;28;20877;-72
2023/01/06 10:06:15;;;;;;;3.40;2.03;;;10.90;99.90;;;;;;5088572;28;20449;-72
2023/01/06 10:09:12;;;;;;;2.20;1.70;;;10.90;99.90;;;;;;5090557;28;20975;-72
2023/01/06 10:12:11;;;;;;;2.43;1.30;;;11.00;99.90;;;;;;5092859;28;20414;-72
2023/01/06 10:15:08;;;;;;;3.50;1.70;;;11.00;99.90;;;;;;5094719;28;20829;-72
2023/01/06 10:18:04;;;;;;;2.30;1.43;;;10.90;99.90;;;;;;5093698;28;20785;-72
2023/01/06 10:21:08;;;;;;;2.00;1.80;;;10.90;99.90;;;;;;5097459;28;20424;-72
2023/01/06 10:24:33;;;;;;;2.70;2.10;;;10.90;99.90;;;;;;5095110;28;20416;-72
2023/01/06 10:27:26;;;;;;;3.30;1.87;;;10.90;99.90;;;;;;5089131;28;20452;-73
2023/01/06 10:30:20;;;;;;;7.23;1.40;;;10.90;99.90;;;;;;5099168;28;20470;-72
2023/01/06 10:33:06;;;;;;;2.93;1.30;;;11.00;99.90;;;;;;5094244;28;20437;-72
2023/01/06 10:35:52;;;;;;;3.67;2.00;;;11.10;99.90;;;;;;5099683;28;20796;-72
2023/01/06 10:38:43;;;;;;;3.17;1.50;;;11.20;99.90;;;;;;5099509;28;20450;-72
2023/01/06 10:41:40;;;;;;;6.87;1.80;;;11.20;99.90;;;;;;5096418;28;20384;-72
2023/01/06 10:44:26;;;;;;;2.23;1.43;;;11.10;99.90;;;;;;5102319;28;20397;-72
2023/01/06 10:47:20;;;;;;;2.10;1.50;;;11.10;99.90;;;;;;5096575;28;20793;-72
2023/01/06 10:50:06;;;;;;;5.07;1.87;;;11.20;99.90;;;;;;5096581;28;20473;-73
2023/01/06 10:52:52;;;;;;;2.20;1.40;;;11.10;99.90;;;;;;5101399;28;20396;-72
2023/01/06 10:55:47;;;;;;;5.80;2.13;;;11.10;99.90;;;;;;5081154;28;20425;-73
2023/01/06 10:58:37;;;;;;;6.17;1.27;;;11.10;99.90;;;;;;5101220;28;20428;-72
2023/01/06 11:01:24;;;;;;;4.10;1.40;;;11.10;99.90;;;;;;5099319;28;20488;-72
2023/01/06 11:04:12;;;;;;;2.27;1.23;;;11.10;99.90;;;;;;5098288;28;20455;-72
2023/01/06 11:06:59;;;;;;;5.17;1.90;;;11.10;99.90;;;;;;5096131;28;20575;-73
2023/01/06 11:09:45;;;;;;;3.00;1.60;;;11.10;99.90;;;;;;5099668;28;20799;-72
2023/01/06 11:12:32;;;;;;;5.27;1.90;;;11.20;99.90;;;;;;5092208;28;20396;-73
2023/01/06 11:15:21;;;;;;;1.90;1.43;;;11.20;99.90;;;;;;5093262;28;20453;-72
2023/01/06 11:18:19;;;;;;;3.90;1.80;;;11.20;99.90;;;;;;5101234;28;20535;-72
2023/01/06 11:21:10;;;;;;;4.80;1.80;;;11.30;99.90;;;;;;5097112;28;20770;-72
2023/01/06 11:24:14;;;;;;;2.30;1.30;;;11.30;99.90;;;;;;5100489;28;20418;-72
2023/01/06 11:27:01;;;;;;;2.77;1.73;;;11.20;99.90;;;;;;5094300;28;20443;-72
2023/01/06 11:29:48;;;;;;;4.00;2.07;;;11.20;99.90;;;;;;5094182;28;21012;-73
2023/01/06 11:32:34;;;;;;;3.10;1.50;;;11.30;99.90;;;;;;5096336;28;20896;-72
2023/01/06 11:35:24;;;;;;;4.20;2.63;;;11.30;99.90;;;;;;5094289;28;20428;-73
2023/01/06 11:38:14;;;;;;;3.60;1.50;;;11.30;99.90;;;;;;5103666;28;20437;-72
2023/01/06 11:41:06;;;;;;;5.83;2.73;;;11.30;99.90;;;;;;5098695;28;20593;-72
2023/01/06 11:43:56;;;;;;;2.47;1.40;;;11.40;99.90;;;;;;5097125;28;20404;-72
2023/01/06 11:46:50;;;;;;;2.37;1.50;;;11.30;99.90;;;;;;5098115;28;20947;-72
2023/01/06 11:49:41;;;;;;;1.80;1.13;;;11.20;99.90;;;;;;5093755;28;20962;-72
2023/01/06 11:52:29;;;;;;;4.17;1.60;;;11.10;99.90;;;;;;5101523;28;20392;-72
2023/01/06 11:55:22;;;;;;;3.80;1.37;;;11.10;99.90;;;;;;5086783;28;20442;-72
2023/01/06 11:58:13;;;;;;;7.70;1.27;;;11.20;99.90;;;;;;5091022;28;20535;-72
2023/01/06 12:01:03;;;;;;;4.53;1.40;;;11.20;99.90;;;;;;5103287;28;20400;-73
2023/01/06 12:03:54;;;;;;;2.33;1.50;;;11.20;99.90;;;;;;5088364;28;20404;-73
2023/01/06 12:06:42;;;;;;;7.30;1.50;;;11.30;99.90;;;;;;5087380;28;20444;-72
2023/01/06 12:09:33;;;;;;;4.93;1.37;;;11.40;99.90;;;;;;5094429;28;20945;-73
2023/01/06 12:12:21;;;;;;;5.43;1.27;;;11.40;99.90;;;;;;5093265;28;20430;-72
2023/01/06 12:15:12;;;;;;;11.37;1.30;;;11.40;99.90;;;;;;5085181;28;20444;-73
2023/01/06 12:18:03;;;;;;;1.83;1.00;;;11.30;99.90;;;;;;5100177;28;20453;-73
2023/01/06 12:20:52;;;;;;;1.53;1.10;;;11.30;99.90;;;;;;5092699;28;20989;-72
2023/01/06 12:23:41;;;;;;;1.60;0.80;;;11.40;99.90;;;;;;5092201;28;20504;-72
2023/01/06 12:26:28;;;;;;;1.73;1.07;;;11.40;99.90;;;;;;5104907;28;20393;-73
2023/01/06 12:29:19;;;;;;;2.00;0.90;;;11.40;99.90;;;;;;5102683;28;20602;-72
2023/01/06 12:32:14;;;;;;;2.10;0.80;;;11.40;99.90;;;;;;5098344;28;20445;-72
2023/01/06 12:35:03;;;;;;;1.60;0.70;;;11.40;99.90;;;;;;5083613;28;20428;-72
2023/01/06 12:37:53;;;;;;;1.40;0.70;;;11.30;99.90;;;;;;5097731;28;21165;-72
2023/01/06 12:40:43;;;;;;;1.40;0.80;;;11.40;99.90;;;;;;5096646;28;20779;-72
2023/01/06 12:43:33;;;;;;;2.17;1.33;;;11.30;99.90;;;;;;5091674;28;20413;-72
2023/01/06 12:46:24;;;;;;;1.47;0.80;;;11.40;99.90;;;;;;5091563;28;20964;-72
2023/01/06 12:49:19;;;;;;;4.60;0.70;;;11.20;99.90;;;;;;5102070;28;20510;-72
2023/01/06 12:52:11;;;;;;;1.60;0.70;;;11.20;99.90;;;;;;5098250;28;20429;-72
2023/01/06 12:54:59;;;;;;;1.70;0.90;;;11.20;99.90;;;;;;5089406;28;20457;-72
2023/01/06 13:00:36;;;;;;;2.43;0.80;;;11.30;99.90;;;;;;4973841;28;21122;-74
2023/01/06 13:03:52;;;;;;;1.20;0.60;;;11.20;99.90;;;;;;4973584;28;20458;-75
2023/01/06 13:06:52;;;;;;;2.20;0.80;;;11.20;99.90;;;;;;4952091;28;20456;-75
2023/01/06 13:09:54;;;;;;;2.00;1.03;;;11.20;99.90;;;;;;4956979;28;20430;-74
2023/01/06 13:13:12;;;;;;;2.70;0.80;;;11.20;99.90;;;;;;4948789;28;20431;-72
2023/01/06 13:16:04;;;;;;;2.30;0.93;;;11.20;99.90;;;;;;4953779;28;20457;-75
2023/01/06 13:19:02;;;;;;;1.83;1.00;;;11.20;99.90;;;;;;4949878;28;21080;-75
2023/01/06 13:21:50;;;;;;;1.97;1.00;;;11.20;99.90;;;;;;4947066;28;20407;-75
2023/01/06 13:24:55;;;;;;;3.43;1.10;;;11.30;99.90;;;;;;4944720;28;20447;-74
2023/01/06 13:27:54;;;;;;;2.93;1.53;;;11.20;99.90;;;;;;4946623;28;20471;-74
2023/01/06 13:30:57;;;;;;;3.70;1.20;;;11.20;99.90;;;;;;4957166;28;20433;-75
2023/01/06 13:34:16;;;;;;;1.50;0.70;;;11.20;99.90;;;;;;4947000;28;20832;-75
2023/01/06 13:37:15;;;;;;;1.60;1.10;;;11.20;99.90;;;;;;4950522;28;20534;-75
2023/01/06 13:40:04;;;;;;;2.63;1.10;;;11.20;99.90;;;;;;4946902;28;20984;-75
2023/01/06 13:42:55;;;;;;;2.13;0.80;;;11.20;99.90;;;;;;4947696;28;20560;-74
2023/01/06 13:45:44;;;;;;;2.73;2.30;;;11.30;99.90;;;;;;4956816;28;20399;-74
2023/01/06 13:48:35;;;;;;;1.67;0.93;;;11.40;99.90;;;;;;4954544;28;20590;-75
2023/01/06 13:51:23;;;;;;;3.30;0.80;;;11.30;99.90;;;;;;4957162;28;20414;-75
2023/01/06 13:54:42;;;;;;;5.93;1.00;;;11.30;99.90;;;;;;4947980;28;20463;-74
2023/01/06 13:57:41;;;;;;;3.73;1.00;;;11.20;99.90;;;;;;4957274;28;20960;-75
2023/01/06 14:00:28;;;;;;;2.67;1.03;;;11.20;99.90;;;;;;4954201;28;20407;-75
2023/01/06 14:03:24;;;;;;;3.10;1.00;;;11.20;99.90;;;;;;4952438;28;20573;-75
2023/01/06 14:06:13;;;;;;;2.33;0.80;;;11.20;99.90;;;;;;4952923;28;20448;-75
2023/01/06 14:09:01;;;;;;;1.50;0.70;;;11.30;99.90;;;;;;4955974;28;20534;-75
2023/01/06 14:11:46;;;;;;;2.00;0.90;;;11.30;99.90;;;;;;4947137;28;20402;-73
2023/01/06 14:14:37;;;;;;;1.80;0.87;;;11.20;99.90;;;;;;4949682;28;20485;-75
2023/01/06 14:17:31;;;;;;;2.53;1.00;;;11.30;99.90;;;;;;4948924;29;20419;-75
2023/01/06 14:20:28;;;;;;;1.60;0.83;;;11.30;99.90;;;;;;4950160;28;20440;-75
2023/01/06 14:23:23;;;;;;;3.40;1.10;;;11.30;99.90;;;;;;4939389;28;20422;-75
2023/01/06 14:26:10;;;;;;;1.87;1.00;;;11.30;99.90;;;;;;4954815;28;20460;-75
2023/01/06 14:29:05;;;;;;;2.30;1.00;;;11.40;99.90;;;;;;4954755;28;20457;-75
2023/01/06 14:31:51;;;;;;;2.77;0.90;;;11.40;99.90;;;;;;4945958;28;20473;-75
2023/01/06 14:34:41;;;;;;;2.87;1.00;;;11.40;99.90;;;;;;4950093;28;20433;-75
2023/01/06 14:37:32;;;;;;;3.10;1.23;;;11.40;99.90;;;;;;4955971;28;20421;-72
2023/01/06 14:40:23;;;;;;;2.00;0.97;;;11.40;99.90;;;;;;4953488;28;20780;-73
2023/01/06 14:43:34;;;;;;;2.37;0.97;;;11.50;99.90;;;;;;4943741;28;20444;-72
2023/01/06 14:46:25;;;;;;;2.13;1.20;;;11.50;99.90;;;;;;4953022;28;20514;-73
2023/01/06 14:49:16;;;;;;;7.63;1.33;;;11.50;99.90;;;;;;4947118;28;20462;-74